createdAt,value
2023-03-10T00:00:08.667Z,2.94
2023-03-10T00:02:37.273Z,2.93
2023-03-10T00:05:06.567Z,2.91
2023-03-10T00:07:39.284Z,2.89
2023-03-10T00:10:07.657Z,2.89
2023-03-10T00:12:36.054Z,2.84
2023-03-10T00:15:04.476Z,2.80
2023-03-10T00:17:36.142Z,2.76
2023-03-10T00:20:10.835Z,2.71
2023-03-10T00:22:39.115Z,2.66
2023-03-10T00:25:09.464Z,2.61
2023-03-10T00:27:37.419Z,2.56
2023-03-10T00:30:05.033Z,2.50
2023-03-10T00:32:38.150Z,2.47
2023-03-10T00:35:08.957Z,2.46
2023-03-10T00:37:37.851Z,2.47
2023-03-10T00:40:10.473Z,2.51
2023-03-10T00:42:37.910Z,2.56
2023-03-10T00:45:05.480Z,2.60
2023-03-10T00:47:35.596Z,2.62
2023-03-10T00:50:03.307Z,2.62
2023-03-10T00:52:32.502Z,2.64
2023-03-10T00:54:59.677Z,2.62
2023-03-10T00:57:27.026Z,2.60
2023-03-10T00:59:54.047Z,2.58
2023-03-10T01:02:22.165Z,2.56
2023-03-10T01:04:51.761Z,2.51
2023-03-10T01:07:19.616Z,2.47
2023-03-10T01:09:47.903Z,2.42
2023-03-10T01:12:15.237Z,2.32
2023-03-10T01:14:43.094Z,2.22
2023-03-10T01:17:13.751Z,2.16
2023-03-10T01:19:42.339Z,2.15
2023-03-10T01:22:10.258Z,2.14
2023-03-10T01:24:40.695Z,2.12
2023-03-10T01:27:08.968Z,2.10
2023-03-10T01:29:37.033Z,2.10
2023-03-10T01:32:06.460Z,2.08
2023-03-10T01:34:35.466Z,2.07
2023-03-10T01:37:02.583Z,2.05
2023-03-10T01:39:29.798Z,2.00
2023-03-10T01:41:56.995Z,1.97
2023-03-10T01:44:24.328Z,1.93
2023-03-10T01:46:55.939Z,1.84
2023-03-10T01:49:51.103Z,1.79
2023-03-10T01:52:20.851Z,1.77
2023-03-10T01:55:22.027Z,1.78
2023-03-10T01:57:54.877Z,1.75
2023-03-10T02:00:24.128Z,1.71
2023-03-10T02:03:14.425Z,1.69
2023-03-10T02:05:45.136Z,1.63
2023-03-10T02:08:15.794Z,1.58
2023-03-10T02:10:44.783Z,1.60
2023-03-10T02:13:13.835Z,1.62
2023-03-10T02:15:43.191Z,1.64
2023-03-10T02:18:11.515Z,1.64
2023-03-10T02:21:01.534Z,1.65
2023-03-10T02:24:01.369Z,1.63
2023-03-10T02:26:41.316Z,1.57
2023-03-10T02:29:13.869Z,1.51
2023-03-10T02:31:41.360Z,1.50
2023-03-10T02:34:09.556Z,1.48
2023-03-10T02:36:38.951Z,1.44
2023-03-10T02:39:05.948Z,1.43
2023-03-10T02:41:35.652Z,1.43
2023-03-10T02:44:09.413Z,1.42
2023-03-10T02:46:37.016Z,1.38
2023-03-10T02:49:10.373Z,1.36
2023-03-10T02:51:45.340Z,1.35
2023-03-10T02:54:15.969Z,1.32
2023-03-10T02:56:43.300Z,1.26
2023-03-10T02:59:15.567Z,1.21
2023-03-10T03:01:47.862Z,1.19
2023-03-10T03:04:15.433Z,1.17
2023-03-10T03:06:43.596Z,1.10
2023-03-10T03:09:12.024Z,1.05
2023-03-10T03:11:40.491Z,1.03
2023-03-10T03:14:12.555Z,1.04
2023-03-10T03:16:40.732Z,1.03
2023-03-10T03:19:09.873Z,1.03
2023-03-10T03:21:37.699Z,1.03
2023-03-10T03:24:05.028Z,1.05
2023-03-10T03:26:34.946Z,1.08
2023-03-10T03:29:11.486Z,1.11
2023-03-10T03:31:39.573Z,1.09
2023-03-10T03:34:15.210Z,1.11
2023-03-10T03:36:44.551Z,1.11
2023-03-10T03:39:17.657Z,1.12
2023-03-10T03:41:48.569Z,1.12
2023-03-10T03:44:16.248Z,1.12
2023-03-10T03:46:46.692Z,1.09
2023-03-10T03:49:14.286Z,1.08
2023-03-10T03:51:47.398Z,1.08
2023-03-10T03:54:14.951Z,1.07
2023-03-10T03:56:42.441Z,1.06
2023-03-10T03:59:10.238Z,0.99
2023-03-10T04:01:40.200Z,0.96
2023-03-10T04:04:07.376Z,0.96
2023-03-10T04:06:37.815Z,0.94
2023-03-10T04:09:06.526Z,0.93
2023-03-10T04:11:34.371Z,0.95
2023-03-10T04:14:04.126Z,0.95
2023-03-10T04:16:32.401Z,0.98
2023-03-10T04:19:01.269Z,0.99
2023-03-10T04:21:30.555Z,0.98
2023-03-10T04:23:58.380Z,0.95
2023-03-10T04:26:30.236Z,0.95
2023-03-10T04:29:00.456Z,0.97
2023-03-10T04:31:34.672Z,0.96
2023-03-10T04:34:02.400Z,0.96
2023-03-10T04:36:29.956Z,0.97
2023-03-10T04:38:58.596Z,1.03
2023-03-10T04:41:29.138Z,1.08
2023-03-10T04:44:03.383Z,1.13
2023-03-10T04:46:32.369Z,1.16
2023-03-10T04:48:59.809Z,1.20
2023-03-10T04:51:26.853Z,1.22
2023-03-10T04:53:56.668Z,1.22
2023-03-10T04:56:26.362Z,1.25
2023-03-10T04:58:54.475Z,1.24
2023-03-10T05:01:22.003Z,1.18
2023-03-10T05:03:52.849Z,1.13
2023-03-10T05:06:20.988Z,1.12
2023-03-10T05:08:55.666Z,1.14
2023-03-10T05:11:24.859Z,1.09
2023-03-10T05:13:52.197Z,1.05
2023-03-10T05:16:24.779Z,1.02
2023-03-10T05:18:54.864Z,1.03
2023-03-10T05:21:27.654Z,1.07
2023-03-10T05:23:55.613Z,1.10
2023-03-10T05:26:25.434Z,1.10
2023-03-10T05:28:53.361Z,1.09
2023-03-10T05:31:30.569Z,1.07
2023-03-10T05:34:04.088Z,1.07
2023-03-10T05:36:31.578Z,1.10
2023-03-10T05:39:00.133Z,1.06
2023-03-10T05:41:29.818Z,1.00
2023-03-10T05:44:03.821Z,1.01
2023-03-10T05:46:32.099Z,1.08
2023-03-10T05:49:01.087Z,1.16
2023-03-10T05:51:28.706Z,1.23
2023-03-10T05:53:57.304Z,1.26
2023-03-10T05:56:27.791Z,1.31
2023-03-10T05:59:02.549Z,1.40
2023-03-10T06:01:32.651Z,1.48
2023-03-10T06:04:04.039Z,1.52
2023-03-10T06:06:33.072Z,1.57
2023-03-10T06:09:00.540Z,1.68
2023-03-10T06:11:34.502Z,1.81
2023-03-10T06:14:03.881Z,1.95
2023-03-10T06:16:32.187Z,2.06
2023-03-10T06:19:01.448Z,2.20
2023-03-10T06:21:29.229Z,2.33
2023-03-10T06:23:56.911Z,2.45
2023-03-10T06:26:26.913Z,2.62
2023-03-10T06:28:54.121Z,2.84
2023-03-10T06:31:22.813Z,3.06
2023-03-10T06:33:50.599Z,3.19
2023-03-10T06:36:19.893Z,3.22
2023-03-10T06:38:52.178Z,3.26
2023-03-10T06:41:39.890Z,3.33
2023-03-10T06:44:09.311Z,3.37
2023-03-10T06:46:38.723Z,3.37
2023-03-10T06:49:07.054Z,3.33
2023-03-10T06:51:38.244Z,3.29
2023-03-10T06:54:06.834Z,3.27
2023-03-10T06:56:35.361Z,3.29
2023-03-10T06:59:06.013Z,3.30
2023-03-10T07:01:35.145Z,3.26
2023-03-10T07:04:05.177Z,3.20
2023-03-10T07:06:45.022Z,3.15
2023-03-10T07:09:24.394Z,3.03
2023-03-10T07:11:57.533Z,2.90
2023-03-10T07:14:29.043Z,2.84
2023-03-10T07:17:00.950Z,2.78
2023-03-10T07:19:34.233Z,2.76
2023-03-10T07:22:11.427Z,2.82
2023-03-10T07:24:41.191Z,2.92
2023-03-10T07:27:17.787Z,3.03
2023-03-10T07:29:53.517Z,3.12
2023-03-10T07:32:21.790Z,3.18
2023-03-10T07:35:08.420Z,3.09
2023-03-10T07:37:42.870Z,2.93
2023-03-10T07:40:11.399Z,2.77
2023-03-10T07:42:43.057Z,2.76
2023-03-10T07:45:13.172Z,2.79
2023-03-10T07:47:57.756Z,2.79
2023-03-10T07:50:28.729Z,2.79
2023-03-10T07:52:56.796Z,2.81
2023-03-10T07:55:34.267Z,2.82
2023-03-10T07:58:05.851Z,2.82
2023-03-10T08:00:33.549Z,2.81
2023-03-10T08:03:05.762Z,2.82
2023-03-10T08:05:41.524Z,2.82
2023-03-10T08:08:18.022Z,2.87
2023-03-10T08:10:47.704Z,2.94
2023-03-10T08:13:17.719Z,3.03
2023-03-10T08:15:45.743Z,3.13
2023-03-10T08:18:14.931Z,3.17
2023-03-10T08:20:43.093Z,3.11
2023-03-10T08:23:19.235Z,3.03
2023-03-10T08:25:54.924Z,2.95
2023-03-10T08:28:30.472Z,2.83
2023-03-10T08:31:09.655Z,2.75
2023-03-10T08:33:44.455Z,2.76
2023-03-10T08:36:19.649Z,2.91
2023-03-10T08:38:51.067Z,3.04
2023-03-10T08:41:26.583Z,3.20
2023-03-10T08:44:34.680Z,3.34
2023-03-10T08:47:09.115Z,3.39
2023-03-10T08:49:43.166Z,3.51
2023-03-10T08:52:16.413Z,3.59
2023-03-10T08:54:45.321Z,3.59
2023-03-10T08:57:14.654Z,3.61
2023-03-10T08:59:44.329Z,3.59
2023-03-10T09:02:16.721Z,3.55
2023-03-10T09:04:47.865Z,3.58
2023-03-10T09:07:23.454Z,3.67
2023-03-10T09:09:53.658Z,3.74
2023-03-10T09:12:33.196Z,3.74
2023-03-10T09:15:07.319Z,3.68
2023-03-10T09:17:40.780Z,3.70
2023-03-10T09:20:15.462Z,3.78
2023-03-10T09:22:53.614Z,3.90
2023-03-10T09:25:25.126Z,4.01
2023-03-10T09:27:53.892Z,4.08
2023-03-10T09:30:23.322Z,4.14
2023-03-10T09:33:00.133Z,4.31
2023-03-10T09:35:33.319Z,4.49
2023-03-10T09:38:22.998Z,4.79
2023-03-10T09:41:48.605Z,5.13
2023-03-10T09:44:33.279Z,5.34
2023-03-10T09:47:15.131Z,5.42
2023-03-10T09:50:21.043Z,5.68
2023-03-10T09:53:00.648Z,6.12
2023-03-10T09:56:07.613Z,6.41
2023-03-10T09:58:55.183Z,6.58
2023-03-10T10:01:36.096Z,6.74
2023-03-10T10:04:18.580Z,6.74
2023-03-10T10:06:48.118Z,6.67
2023-03-10T10:09:29.822Z,6.60
2023-03-10T10:12:17.572Z,6.60
2023-03-10T10:14:57.284Z,6.63
2023-03-10T10:18:19.625Z,6.46
2023-03-10T10:20:59.070Z,6.15
2023-03-10T10:23:40.356Z,5.92
2023-03-10T10:29:40.328Z,5.60
2023-03-10T10:32:23.145Z,5.32
2023-03-10T10:35:15.063Z,5.23
2023-03-10T10:37:45.835Z,5.17
2023-03-10T10:40:26.102Z,5.13
2023-03-10T10:43:01.573Z,5.17
2023-03-10T10:45:38.663Z,5.09
2023-03-10T10:48:11.297Z,4.92
2023-03-10T10:50:55.113Z,4.81
2023-03-10T10:53:27.484Z,4.72
2023-03-10T10:59:44.038Z,4.48
2023-03-10T11:02:40.232Z,4.40
2023-03-10T11:05:38.247Z,4.24
2023-03-10T11:08:40.576Z,4.09
2023-03-10T11:11:33.560Z,4.02
2023-03-10T11:14:20.673Z,3.88
2023-03-10T11:17:29.781Z,3.86
2023-03-10T11:20:13.568Z,3.96
2023-03-10T11:23:24.165Z,4.01
2023-03-10T11:26:06.399Z,4.04
2023-03-10T11:28:44.584Z,4.09
2023-03-10T11:32:08.432Z,4.18
2023-03-10T11:34:50.823Z,4.31
2023-03-10T11:37:55.464Z,4.39
2023-03-10T11:44:12.335Z,4.55
2023-03-10T11:47:09.171Z,4.53
2023-03-10T11:49:41.140Z,4.52
2023-03-10T11:52:26.566Z,4.52
2023-03-10T11:55:13.096Z,4.53
2023-03-10T11:57:46.169Z,4.57
2023-03-10T12:00:21.334Z,4.54
2023-03-10T12:03:17.176Z,4.52
2023-03-10T12:05:58.468Z,4.50
2023-03-10T12:08:37.455Z,4.47
2023-03-10T12:11:24.967Z,4.41
2023-03-10T12:14:25.346Z,4.36
2023-03-10T12:17:08.055Z,4.41
2023-03-10T12:20:33.988Z,4.48
2023-03-10T12:26:49.865Z,4.49
2023-03-10T12:29:21.413Z,4.47
2023-03-10T12:31:55.564Z,4.44
2023-03-10T12:34:34.132Z,4.44
2023-03-10T12:37:15.735Z,4.44
2023-03-10T12:39:46.526Z,4.46
2023-03-10T12:42:32.697Z,4.54
2023-03-10T12:45:28.981Z,4.61
2023-03-10T12:48:20.807Z,4.66
2023-03-10T12:50:57.342Z,4.72
2023-03-10T12:53:36.469Z,4.78
2023-03-10T12:56:14.105Z,4.80
2023-03-10T12:59:13.198Z,4.83
2023-03-10T13:01:56.286Z,4.90
2023-03-10T13:04:41.554Z,4.99
2023-03-10T13:07:18.060Z,5.03
2023-03-10T13:09:51.311Z,5.04
2023-03-10T13:12:48.019Z,5.03
2023-03-10T13:15:26.207Z,5.02
2023-03-10T13:18:25.774Z,5.05
2023-03-10T13:21:05.837Z,5.12
2023-03-10T13:23:39.557Z,5.21
2023-03-10T13:26:16.610Z,5.32
2023-03-10T13:29:05.923Z,5.42
2023-03-10T13:31:36.160Z,5.45
2023-03-10T13:34:19.553Z,5.43
2023-03-10T13:36:54.679Z,5.42
2023-03-10T13:39:27.246Z,5.43
2023-03-10T13:41:59.726Z,5.44
2023-03-10T13:44:41.822Z,5.40
2023-03-10T13:47:22.901Z,5.36
2023-03-10T13:49:56.387Z,5.30
2023-03-10T13:52:28.950Z,5.24
2023-03-10T13:55:13.094Z,5.22
2023-03-10T13:57:45.607Z,5.16
2023-03-10T14:00:25.486Z,5.14
2023-03-10T14:02:56.538Z,5.13
2023-03-10T14:05:53.503Z,5.14
2023-03-10T14:08:30.653Z,5.15
2023-03-10T14:11:40.747Z,5.15
2023-03-10T14:14:38.251Z,5.16
2023-03-10T14:20:48.419Z,5.22
2023-03-10T14:23:28.828Z,5.23
2023-03-10T14:26:08.534Z,5.23
2023-03-10T14:28:36.420Z,5.21
2023-03-10T14:32:13.079Z,5.19
2023-03-10T14:38:13.881Z,5.19
2023-03-10T14:41:19.202Z,5.20
2023-03-10T14:44:14.206Z,5.22
2023-03-10T14:47:00.328Z,5.23
2023-03-10T14:49:31.181Z,5.23
2023-03-10T14:52:04.925Z,5.26
2023-03-10T14:54:44.918Z,5.25
2023-03-10T14:57:22.285Z,5.24
2023-03-10T15:00:13.253Z,5.23
2023-03-10T15:02:45.051Z,5.24
2023-03-10T15:05:27.690Z,5.25
2023-03-10T15:08:08.556Z,5.27
2023-03-10T15:11:17.450Z,5.29
2023-03-10T15:13:58.350Z,5.28
2023-03-10T15:16:40.840Z,5.26
2023-03-10T15:19:47.210Z,5.24
2023-03-10T15:22:17.149Z,5.20
2023-03-10T15:24:49.219Z,5.14
2023-03-10T15:27:22.813Z,5.06
2023-03-10T15:30:00.990Z,4.99
2023-03-10T15:32:38.945Z,4.94
2023-03-10T15:35:14.687Z,4.87
2023-03-10T15:37:48.134Z,4.80
2023-03-10T15:40:27.728Z,4.72
2023-03-10T15:43:04.450Z,4.64
2023-03-10T15:45:42.155Z,4.59
2023-03-10T15:48:13.652Z,4.56
2023-03-10T15:50:52.647Z,4.51
2023-03-10T15:53:30.829Z,4.46
2023-03-10T15:56:10.017Z,4.37
2023-03-10T15:59:04.356Z,4.29
2023-03-10T16:01:39.198Z,4.23
2023-03-10T16:04:08.401Z,4.19
2023-03-10T16:06:36.898Z,4.15
2023-03-10T16:09:10.388Z,4.11
2023-03-10T16:11:54.462Z,4.06
2023-03-10T16:14:30.395Z,4.02
2023-03-10T16:17:01.323Z,3.98
2023-03-10T16:19:29.064Z,3.93
2023-03-10T16:22:00.807Z,3.87
2023-03-10T16:24:33.610Z,3.83
2023-03-10T16:27:05.397Z,3.79
2023-03-10T16:29:34.509Z,3.75
2023-03-10T16:32:17.846Z,3.70
2023-03-10T16:34:50.053Z,3.67
2023-03-10T16:37:19.901Z,3.67
2023-03-10T16:39:54.294Z,3.68
2023-03-10T16:42:26.043Z,3.68
2023-03-10T16:44:57.827Z,3.66
2023-03-10T16:47:31.118Z,3.65
2023-03-10T16:50:02.756Z,3.64
2023-03-10T16:52:30.425Z,3.63
2023-03-10T16:55:04.640Z,3.61
2023-03-10T16:57:36.108Z,3.61
2023-03-10T17:00:11.974Z,3.59
2023-03-10T17:02:50.099Z,3.56
2023-03-10T17:05:18.795Z,3.53
2023-03-10T17:07:55.578Z,3.52
2023-03-10T17:10:26.340Z,3.49
2023-03-10T17:12:54.203Z,3.46
2023-03-10T17:15:28.420Z,3.46
2023-03-10T17:18:01.939Z,3.44
2023-03-10T17:20:35.464Z,3.43
2023-03-10T17:23:43.637Z,3.45
2023-03-10T17:26:23.283Z,3.46
2023-03-10T17:29:17.276Z,3.45
2023-03-10T17:31:57.993Z,3.45
2023-03-10T17:34:35.636Z,3.44
2023-03-10T17:37:06.481Z,3.40
2023-03-10T17:39:36.891Z,3.38
2023-03-10T17:42:07.736Z,3.34
2023-03-10T17:44:37.929Z,3.34
2023-03-10T17:47:12.680Z,3.32
2023-03-10T17:49:48.020Z,3.32
2023-03-10T17:52:22.493Z,3.31
2023-03-10T17:55:22.361Z,3.28
2023-03-10T17:57:57.500Z,3.24
2023-03-10T18:00:28.542Z,3.24
2023-03-10T18:02:58.421Z,3.23
2023-03-10T18:05:44.445Z,3.23
2023-03-10T18:08:16.950Z,3.19
2023-03-10T18:10:48.601Z,3.17
2023-03-10T18:13:19.984Z,3.15
2023-03-10T18:16:02.050Z,3.15
2023-03-10T18:18:30.191Z,3.15
2023-03-10T18:21:00.613Z,3.14
2023-03-10T18:23:34.361Z,3.13
2023-03-10T18:26:25.401Z,3.11
2023-03-10T18:28:53.502Z,3.07
2023-03-10T18:31:29.935Z,3.04
2023-03-10T18:34:03.390Z,3.03
2023-03-10T18:36:33.535Z,3.01
2023-03-10T18:39:07.811Z,2.98
2023-03-10T18:41:41.406Z,2.95
2023-03-10T18:44:11.063Z,2.92
2023-03-10T18:46:47.264Z,2.85
2023-03-10T18:49:15.044Z,2.79
2023-03-10T18:51:48.729Z,2.75
2023-03-10T18:54:20.832Z,2.72
2023-03-10T18:56:51.242Z,2.68
2023-03-10T18:59:24.880Z,2.63
2023-03-10T19:01:55.492Z,2.62
2023-03-10T19:04:25.326Z,2.60
2023-03-10T19:06:57.464Z,2.55
2023-03-10T19:09:29.115Z,2.51
2023-03-10T19:12:14.702Z,2.46
2023-03-10T19:14:48.819Z,2.42
2023-03-10T19:17:26.247Z,2.41
2023-03-10T19:19:54.153Z,2.38
2023-03-10T19:22:22.519Z,2.36
2023-03-10T19:24:59.198Z,2.33
2023-03-10T19:27:31.878Z,2.29
2023-03-10T19:32:52.221Z,2.19
2023-03-10T19:35:24.039Z,2.17
2023-03-10T19:37:52.650Z,2.12
2023-03-10T19:40:27.904Z,2.08
2023-03-10T19:42:57.567Z,2.08
2023-03-10T19:45:33.503Z,2.05
2023-03-10T19:48:04.185Z,2.03
2023-03-10T19:50:33.309Z,2.01
2023-03-10T19:53:02.180Z,2.01
2023-03-10T19:55:34.319Z,2.00
2023-03-10T19:58:03.418Z,1.98
2023-03-10T20:00:36.003Z,1.96
2023-03-10T20:03:06.496Z,1.95
2023-03-10T20:05:42.344Z,1.94
2023-03-10T20:08:11.310Z,1.92
2023-03-10T20:10:45.007Z,1.90
2023-03-10T20:13:13.732Z,1.89
2023-03-10T20:15:47.690Z,1.87
2023-03-10T20:18:21.420Z,1.86
2023-03-10T20:20:49.892Z,1.81
2023-03-10T20:23:21.732Z,1.79
2023-03-10T20:25:51.164Z,1.77
2023-03-10T20:28:19.731Z,1.76
2023-03-10T20:30:49.203Z,1.72
2023-03-10T20:33:21.897Z,1.70
2023-03-10T20:35:56.860Z,1.68
2023-03-10T20:38:25.369Z,1.64
2023-03-10T20:40:55.987Z,1.59
2023-03-10T20:43:30.413Z,1.56
2023-03-10T20:46:06.708Z,1.53
2023-03-10T20:48:43.428Z,1.51
2023-03-10T20:51:15.087Z,1.49
2023-03-10T20:53:45.663Z,1.48
2023-03-10T20:56:16.024Z,1.46
2023-03-10T20:58:47.180Z,1.43
